sensor_id;sensor_type;location;lat;lon;timestamp;temperature;humidity
39503;DHT22;26970;49.900;10.774;2023-04-25T00:02:01;7.40;99.90
39503;DHT22;26970;49.900;10.774;2023-04-25T00:04:27;7.40;99.90
39503;DHT22;26970;49.900;10.774;2023-04-25T00:06:53;7.40;99.90
39503;DHT22;26970;49.900;10.774;2023-04-25T00:09:19;7.40;99.90
39503;DHT22;26970;49.900;10.774;2023-04-25T00:11:45;7.40;99.90
39503;DHT22;26970;49.900;10.774;2023-04-25T00:14:10;7.50;99.90
39503;DHT22;26970;49.900;10.774;2023-04-25T00:16:36;7.50;99.90
39503;DHT22;26970;49.900;10.774;2023-04-25T00:19:02;7.50;99.90
39503;DHT22;26970;49.900;10.774;2023-04-25T00:21:28;7.50;99.90
39503;DHT22;26970;49.900;10.774;2023-04-25T00:23:55;7.50;99.90
39503;DHT22;26970;49.900;10.774;2023-04-25T00:26:21;7.50;99.90
39503;DHT22;26970;49.900;10.774;2023-04-25T00:28:47;7.40;99.90
39503;DHT22;26970;49.900;10.774;2023-04-25T00:31:13;7.40;99.90
39503;DHT22;26970;49.900;10.774;2023-04-25T00:33:38;7.40;99.90
39503;DHT22;26970;49.900;10.774;2023-04-25T00:36:05;7.40;99.90
39503;DHT22;26970;49.900;10.774;2023-04-25T00:38:30;7.40;99.90
39503;DHT22;26970;49.900;10.774;2023-04-25T00:40:56;7.40;99.90
39503;DHT22;26970;49.900;10.774;2023-04-25T00:43:26;7.40;99.90
39503;DHT22;26970;49.900;10.774;2023-04-25T00:45:52;7.40;99.90
39503;DHT22;26970;49.900;10.774;2023-04-25T00:48:19;7.40;99.90
39503;DHT22;26970;49.900;10.774;2023-04-25T00:50:52;7.40;99.90
39503;DHT22;26970;49.900;10.774;2023-04-25T00:53:18;7.50;99.90
39503;DHT22;26970;49.900;10.774;2023-04-25T00:55:45;7.50;99.90
39503;DHT22;26970;49.900;10.774;2023-04-25T00:58:10;7.50;99.90
39503;DHT22;26970;49.900;10.774;2023-04-25T01:00:36;7.60;99.90
39503;DHT22;26970;49.900;10.774;2023-04-25T01:03:03;7.60;99.90
39503;DHT22;26970;49.900;10.774;2023-04-25T01:05:29;7.60;99.90
39503;DHT22;26970;49.900;10.774;2023-04-25T01:07:55;7.60;99.90
39503;DHT22;26970;49.900;10.774;2023-04-25T01:10:21;7.60;99.90
39503;DHT22;26970;49.900;10.774;2023-04-25T01:12:47;7.60;99.90
39503;DHT22;26970;49.900;10.774;2023-04-25T01:15:12;7.60;99.90
39503;DHT22;26970;49.900;10.774;2023-04-25T01:17:38;7.50;99.90
39503;DHT22;26970;49.900;10.774;2023-04-25T01:20:06;7.60;99.90
39503;DHT22;26970;49.900;10.774;2023-04-25T01:22:33;7.60;99.90
39503;DHT22;26970;49.900;10.774;2023-04-25T01:24:59;7.60;99.90
39503;DHT22;26970;49.900;10.774;2023-04-25T01:27:25;7.60;99.90
39503;DHT22;26970;49.900;10.774;2023-04-25T01:29:51;7.60;99.90
39503;DHT22;26970;49.900;10.774;2023-04-25T01:32:17;7.60;99.90
39503;DHT22;26970;49.900;10.774;2023-04-25T01:34:43;7.60;99.90
39503;DHT22;26970;49.900;10.774;2023-04-25T01:37:09;7.60;99.90
39503;DHT22;26970;49.900;10.774;2023-04-25T01:39:35;7.60;99.90
39503;DHT22;26970;49.900;10.774;2023-04-25T01:42:00;7.60;99.90
39503;DHT22;26970;49.900;10.774;2023-04-25T01:44:27;7.70;99.90
39503;DHT22;26970;49.900;10.774;2023-04-25T01:46:53;7.70;99.90
39503;DHT22;26970;49.900;10.774;2023-04-25T01:49:18;7.60;99.90
39503;DHT22;26970;49.900;10.774;2023-04-25T01:51:44;7.60;99.90
39503;DHT22;26970;49.900;10.774;2023-04-25T01:54:10;7.60;99.90
39503;DHT22;26970;49.900;10.774;2023-04-25T01:56:37;7.60;99.90
39503;DHT22;26970;49.900;10.774;2023-04-25T01:59:04;7.60;99.90
39503;DHT22;26970;49.900;10.774;2023-04-25T02:01:30;7.60;99.90
39503;DHT22;26970;49.900;10.774;2023-04-25T02:03:55;7.60;99.90
39503;DHT22;26970;49.900;10.774;2023-04-25T02:06:21;7.50;99.90
39503;DHT22;26970;49.900;10.774;2023-04-25T02:08:47;7.50;99.90
39503;DHT22;26970;49.900;10.774;2023-04-25T02:11:12;7.50;99.90
39503;DHT22;26970;49.900;10.774;2023-04-25T02:13:38;7.50;99.90
39503;DHT22;26970;49.900;10.774;2023-04-25T02:16:04;7.40;99.90
39503;DHT22;26970;49.900;10.774;2023-04-25T02:18:30;7.40;99.90
39503;DHT22;26970;49.900;10.774;2023-04-25T02:20:57;7.40;99.90
39503;DHT22;26970;49.900;10.774;2023-04-25T02:23:23;7.40;99.90
39503;DHT22;26970;49.900;10.774;2023-04-25T02:25:49;7.40;99.90
39503;DHT22;26970;49.900;10.774;2023-04-25T02:28:14;7.30;99.90
39503;DHT22;26970;49.900;10.774;2023-04-25T02:30:40;7.40;99.90
39503;DHT22;26970;49.900;10.774;2023-04-25T02:33:06;7.40;99.90
39503;DHT22;26970;49.900;10.774;2023-04-25T02:35:31;7.40;99.90
39503;DHT22;26970;49.900;10.774;2023-04-25T02:37:57;7.40;99.90
39503;DHT22;26970;49.900;10.774;2023-04-25T02:40:23;7.30;99.90
39503;DHT22;26970;49.900;10.774;2023-04-25T02:42:48;7.40;99.90
39503;DHT22;26970;49.900;10.774;2023-04-25T02:45:14;7.30;99.90
39503;DHT22;26970;49.900;10.774;2023-04-25T02:47:39;7.30;99.90
39503;DHT22;26970;49.900;10.774;2023-04-25T02:50:05;7.30;99.90
39503;DHT22;26970;49.900;10.774;2023-04-25T02:52:31;7.30;99.90
39503;DHT22;26970;49.900;10.774;2023-04-25T02:54:57;7.30;99.90
39503;DHT22;26970;49.900;10.774;2023-04-25T02:57:22;7.30;99.90
39503;DHT22;26970;49.900;10.774;2023-04-25T02:59:48;7.30;99.90
39503;DHT22;26970;49.900;10.774;2023-04-25T03:02:13;7.30;99.90
39503;DHT22;26970;49.900;10.774;2023-04-25T03:04:39;7.30;99.90
39503;DHT22;26970;49.900;10.774;2023-04-25T03:07:05;7.30;99.90
39503;DHT22;26970;49.900;10.774;2023-04-25T03:09:31;7.30;99.90
39503;DHT22;26970;49.900;10.774;2023-04-25T03:11:56;7.30;99.90
39503;DHT22;26970;49.900;10.774;2023-04-25T03:14:22;7.30;99.90
39503;DHT22;26970;49.900;10.774;2023-04-25T03:16:47;7.40;99.90
39503;DHT22;26970;49.900;10.774;2023-04-25T03:19:13;7.40;99.90
39503;DHT22;26970;49.900;10.774;2023-04-25T03:21:41;7.30;99.90
39503;DHT22;26970;49.900;10.774;2023-04-25T03:24:07;7.30;99.90
39503;DHT22;26970;49.900;10.774;2023-04-25T03:26:32;7.30;99.90
39503;DHT22;26970;49.900;10.774;2023-04-25T03:28:58;7.30;99.90
39503;DHT22;26970;49.900;10.774;2023-04-25T03:31:23;7.30;99.90
39503;DHT22;26970;49.900;10.774;2023-04-25T03:33:49;7.30;99.90
39503;DHT22;26970;49.900;10.774;2023-04-25T03:36:15;7.20;99.90
39503;DHT22;26970;49.900;10.774;2023-04-25T03:38:40;7.10;99.90
39503;DHT22;26970;49.900;10.774;2023-04-25T03:41:07;7.10;99.90
39503;DHT22;26970;49.900;10.774;2023-04-25T03:43:33;7.10;99.90
39503;DHT22;26970;49.900;10.774;2023-04-25T03:45:58;7.10;99.90
39503;DHT22;26970;49.900;10.774;2023-04-25T03:48:25;7.00;99.90
39503;DHT22;26970;49.900;10.774;2023-04-25T03:50:52;7.00;99.90
39503;DHT22;26970;49.900;10.774;2023-04-25T03:53:17;7.00;99.90
39503;DHT22;26970;49.900;10.774;2023-04-25T03:55:43;7.00;99.90
39503;DHT22;26970;49.900;10.774;2023-04-25T03:58:09;7.00;99.90
39503;DHT22;26970;49.900;10.774;2023-04-25T04:00:35;7.00;99.90
39503;DHT22;26970;49.900;10.774;2023-04-25T04:03:00;7.00;99.90
39503;DHT22;26970;49.900;10.774;2023-04-25T04:05:26;7.00;99.90
39503;DHT22;26970;49.900;10.774;2023-04-25T04:07:52;7.00;99.90
39503;DHT22;26970;49.900;10.774;2023-04-25T04:10:18;7.00;99.90
39503;DHT22;26970;49.900;10.774;2023-04-25T04:12:44;7.00;99.90
39503;DHT22;26970;49.900;10.774;2023-04-25T04:15:10;7.00;99.90
39503;DHT22;26970;49.900;10.774;2023-04-25T04:17:36;6.90;99.90
39503;DHT22;26970;49.900;10.774;2023-04-25T04:20:02;6.90;99.90
39503;DHT22;26970;49.900;10.774;2023-04-25T04:22:29;6.80;99.90
39503;DHT22;26970;49.900;10.774;2023-04-25T04:24:54;6.90;99.90
39503;DHT22;26970;49.900;10.774;2023-04-25T04:27:22;6.80;99.90
39503;DHT22;26970;49.900;10.774;2023-04-25T04:29:48;6.80;99.90
39503;DHT22;26970;49.900;10.774;2023-04-25T04:32:14;6.80;99.90
39503;DHT22;26970;49.900;10.774;2023-04-25T04:34:41;6.80;99.90
39503;DHT22;26970;49.900;10.774;2023-04-25T04:37:07;6.80;99.90
39503;DHT22;26970;49.900;10.774;2023-04-25T04:39:33;6.80;99.90
39503;DHT22;26970;49.900;10.774;2023-04-25T04:41:59;6.80;99.90
39503;DHT22;26970;49.900;10.774;2023-04-25T04:44:27;6.80;99.90
39503;DHT22;26970;49.900;10.774;2023-04-25T04:46:53;6.80;99.90
39503;DHT22;26970;49.900;10.774;2023-04-25T04:49:19;6.80;99.90
39503;DHT22;26970;49.900;10.774;2023-04-25T04:51:45;6.80;99.90
39503;DHT22;26970;49.900;10.774;2023-04-25T04:54:11;6.80;99.90
39503;DHT22;26970;49.900;10.774;2023-04-25T04:56:36;6.90;99.90
39503;DHT22;26970;49.900;10.774;2023-04-25T04:59:02;6.90;99.90
39503;DHT22;26970;49.900;10.774;2023-04-25T05:01:28;6.90;99.90
39503;DHT22;26970;49.900;10.774;2023-04-25T05:03:55;6.90;99.90
39503;DHT22;26970;49.900;10.774;2023-04-25T05:06:25;6.90;99.90
39503;DHT22;26970;49.900;10.774;2023-04-25T05:08:51;6.90;99.90
39503;DHT22;26970;49.900;10.774;2023-04-25T05:11:18;7.00;99.90
39503;DHT22;26970;49.900;10.774;2023-04-25T05:13:44;6.90;99.90
39503;DHT22;26970;49.900;10.774;2023-04-25T05:16:09;6.90;99.90
39503;DHT22;26970;49.900;10.774;2023-04-25T05:18:35;7.00;99.90
39503;DHT22;26970;49.900;10.774;2023-04-25T05:21:01;6.90;99.90
39503;DHT22;26970;49.900;10.774;2023-04-25T05:23:27;7.00;99.90
39503;DHT22;26970;49.900;10.774;2023-04-25T05:25:53;6.90;99.90
39503;DHT22;26970;49.900;10.774;2023-04-25T05:28:19;7.00;99.90
39503;DHT22;26970;49.900;10.774;2023-04-25T05:30:46;7.00;99.90
39503;DHT22;26970;49.900;10.774;2023-04-25T05:33:11;7.00;99.90
39503;DHT22;26970;49.900;10.774;2023-04-25T05:35:37;7.00;99.90
39503;DHT22;26970;49.900;10.774;2023-04-25T05:38:02;7.10;99.90
39503;DHT22;26970;49.900;10.774;2023-04-25T05:40:28;7.10;99.90
39503;DHT22;26970;49.900;10.774;2023-04-25T05:42:53;7.10;99.90
39503;DHT22;26970;49.900;10.774;2023-04-25T05:45:19;7.10;99.90
39503;DHT22;26970;49.900;10.774;2023-04-25T05:47:44;7.20;99.90
39503;DHT22;26970;49.900;10.774;2023-04-25T05:50:10;7.20;99.90
39503;DHT22;26970;49.900;10.774;2023-04-25T05:52:36;7.30;99.90
39503;DHT22;26970;49.900;10.774;2023-04-25T05:55:01;7.30;99.90
39503;DHT22;26970;49.900;10.774;2023-04-25T05:57:27;7.30;99.90
39503;DHT22;26970;49.900;10.774;2023-04-25T05:59:53;7.30;99.90
39503;DHT22;26970;49.900;10.774;2023-04-25T06:02:20;7.30;99.90
39503;DHT22;26970;49.900;10.774;2023-04-25T06:04:47;7.30;99.90
39503;DHT22;26970;49.900;10.774;2023-04-25T06:07:13;7.30;99.90
39503;DHT22;26970;49.900;10.774;2023-04-25T06:09:38;7.40;99.90
39503;DHT22;26970;49.900;10.774;2023-04-25T06:12:05;7.40;99.90
39503;DHT22;26970;49.900;10.774;2023-04-25T06:14:31;7.50;99.90
39503;DHT22;26970;49.900;10.774;2023-04-25T06:16:57;7.50;99.90
39503;DHT22;26970;49.900;10.774;2023-04-25T06:19:23;7.60;99.90
39503;DHT22;26970;49.900;10.774;2023-04-25T06:21:48;7.60;99.90
39503;DHT22;26970;49.900;10.774;2023-04-25T06:24:14;7.70;99.90
39503;DHT22;26970;49.900;10.774;2023-04-25T06:26:39;7.80;99.90
39503;DHT22;26970;49.900;10.774;2023-04-25T06:29:05;7.70;99.90
39503;DHT22;26970;49.900;10.774;2023-04-25T06:31:30;7.70;99.90
39503;DHT22;26970;49.900;10.774;2023-04-25T06:33:58;7.70;99.90
39503;DHT22;26970;49.900;10.774;2023-04-25T06:36:24;7.80;99.90
39503;DHT22;26970;49.900;10.774;2023-04-25T06:38:52;7.90;99.90
39503;DHT22;26970;49.900;10.774;2023-04-25T06:41:18;7.80;99.90
39503;DHT22;26970;49.900;10.774;2023-04-25T06:43:44;7.90;99.90
39503;DHT22;26970;49.900;10.774;2023-04-25T06:46:10;7.90;99.90
39503;DHT22;26970;49.900;10.774;2023-04-25T06:48:35;8.00;99.90
39503;DHT22;26970;49.900;10.774;2023-04-25T06:51:01;8.10;99.90
39503;DHT22;26970;49.900;10.774;2023-04-25T06:53:27;8.20;99.90
39503;DHT22;26970;49.900;10.774;2023-04-25T06:55:52;8.40;99.90
39503;DHT22;26970;49.900;10.774;2023-04-25T06:58:18;8.40;99.90
39503;DHT22;26970;49.900;10.774;2023-04-25T07:00:44;8.30;99.90
39503;DHT22;26970;49.900;10.774;2023-04-25T07:03:09;8.40;99.90
39503;DHT22;26970;49.900;10.774;2023-04-25T07:05:35;8.40;99.90
39503;DHT22;26970;49.900;10.774;2023-04-25T07:08:01;8.80;99.90
39503;DHT22;26970;49.900;10.774;2023-04-25T07:10:26;9.10;99.90
39503;DHT22;26970;49.900;10.774;2023-04-25T07:12:52;9.50;99.90
39503;DHT22;26970;49.900;10.774;2023-04-25T07:15:18;9.90;99.90
39503;DHT22;26970;49.900;10.774;2023-04-25T07:17:43;9.80;99.90
39503;DHT22;26970;49.900;10.774;2023-04-25T07:20:09;9.60;99.90
39503;DHT22;26970;49.900;10.774;2023-04-25T07:22:35;9.40;99.90
39503;DHT22;26970;49.900;10.774;2023-04-25T07:25:01;9.30;99.90
39503;DHT22;26970;49.900;10.774;2023-04-25T07:27:26;9.50;99.90
39503;DHT22;26970;49.900;10.774;2023-04-25T07:29:52;9.70;99.90
39503;DHT22;26970;49.900;10.774;2023-04-25T07:32:18;9.50;99.90
39503;DHT22;26970;49.900;10.774;2023-04-25T07:34:45;9.50;99.90
39503;DHT22;26970;49.900;10.774;2023-04-25T07:37:10;9.90;99.90
39503;DHT22;26970;49.900;10.774;2023-04-25T07:39:36;10.20;99.90
39503;DHT22;26970;49.900;10.774;2023-04-25T07:42:02;10.00;99.90
39503;DHT22;26970;49.900;10.774;2023-04-25T07:44:29;9.80;99.90
39503;DHT22;26970;49.900;10.774;2023-04-25T07:46:56;9.90;99.90
39503;DHT22;26970;49.900;10.774;2023-04-25T07:49:21;9.90;99.90
39503;DHT22;26970;49.900;10.774;2023-04-25T07:51:47;10.10;99.90
39503;DHT22;26970;49.900;10.774;2023-04-25T07:54:14;10.30;99.90
39503;DHT22;26970;49.900;10.774;2023-04-25T07:56:41;10.20;99.90
39503;DHT22;26970;49.900;10.774;2023-04-25T07:59:06;10.20;99.90
39503;DHT22;26970;49.900;10.774;2023-04-25T08:01:34;10.00;99.90
39503;DHT22;26970;49.900;10.774;2023-04-25T08:03:59;9.60;99.90
39503;DHT22;26970;49.900;10.774;2023-04-25T08:06:25;9.60;99.90
39503;DHT22;26970;49.900;10.774;2023-04-25T08:08:51;9.40;99.90
39503;DHT22;26970;49.900;10.774;2023-04-25T08:11:16;9.40;99.90
39503;DHT22;26970;49.900;10.774;2023-04-25T08:13:42;9.40;99.90
39503;DHT22;26970;49.900;10.774;2023-04-25T08:16:07;9.60;99.90
39503;DHT22;26970;49.900;10.774;2023-04-25T08:18:33;9.70;99.90
39503;DHT22;26970;49.900;10.774;2023-04-25T08:20:58;9.50;99.90
39503;DHT22;26970;49.900;10.774;2023-04-25T08:23:24;9.30;99.90
39503;DHT22;26970;49.900;10.774;2023-04-25T08:25:50;9.60;99.90
39503;DHT22;26970;49.900;10.774;2023-04-25T08:28:16;10.00;99.90
39503;DHT22;26970;49.900;10.774;2023-04-25T08:30:42;10.30;99.90
39503;DHT22;26970;49.900;10.774;2023-04-25T08:33:07;10.30;99.90
39503;DHT22;26970;49.900;10.774;2023-04-25T08:35:33;10.30;99.90
39503;DHT22;26970;49.900;10.774;2023-04-25T08:37:59;10.60;99.90
39503;DHT22;26970;49.900;10.774;2023-04-25T08:40:27;11.00;99.90
39503;DHT22;26970;49.900;10.774;2023-04-25T08:42:57;10.90;99.90
39503;DHT22;26970;49.900;10.774;2023-04-25T08:45:23;10.80;99.90
39503;DHT22;26970;49.900;10.774;2023-04-25T08:47:51;10.60;99.90
39503;DHT22;26970;49.900;10.774;2023-04-25T08:50:18;10.30;99.90
39503;DHT22;26970;49.900;10.774;2023-04-25T08:52:47;10.40;99.90
39503;DHT22;26970;49.900;10.774;2023-04-25T08:55:13;10.30;99.90
39503;DHT22;26970;49.900;10.774;2023-04-25T08:57:41;10.20;99.90
39503;DHT22;26970;49.900;10.774;2023-04-25T09:00:12;9.90;99.90
39503;DHT22;26970;49.900;10.774;2023-04-25T09:02:39;9.50;99.90
39503;DHT22;26970;49.900;10.774;2023-04-25T09:05:06;9.00;99.90
39503;DHT22;26970;49.900;10.774;2023-04-25T09:07:32;8.60;99.90
39503;DHT22;26970;49.900;10.774;2023-04-25T09:09:58;8.40;99.90
39503;DHT22;26970;49.900;10.774;2023-04-25T09:12:29;8.20;99.90
39503;DHT22;26970;49.900;10.774;2023-04-25T09:17:28;8.00;99.90
39503;DHT22;26970;49.900;10.774;2023-04-25T09:19:54;8.10;99.90
39503;DHT22;26970;49.900;10.774;2023-04-25T09:22:19;8.20;99.90
39503;DHT22;26970;49.900;10.774;2023-04-25T09:24:48;8.60;99.90
39503;DHT22;26970;49.900;10.774;2023-04-25T09:27:19;9.10;99.90
39503;DHT22;26970;49.900;10.774;2023-04-25T09:29:45;9.50;99.90
39503;DHT22;26970;49.900;10.774;2023-04-25T09:34:45;10.30;99.90
39503;DHT22;26970;49.900;10.774;2023-04-25T09:37:17;10.40;99.90
39503;DHT22;26970;49.900;10.774;2023-04-25T09:39:45;10.40;99.90
39503;DHT22;26970;49.900;10.774;2023-04-25T09:42:12;10.40;99.90
39503;DHT22;26970;49.900;10.774;2023-04-25T09:44:45;10.60;99.90
39503;DHT22;26970;49.900;10.774;2023-04-25T09:47:13;10.50;99.90
39503;DHT22;26970;49.900;10.774;2023-04-25T09:49:40;10.20;99.90
39503;DHT22;26970;49.900;10.774;2023-04-25T09:52:07;9.80;99.90
39503;DHT22;26970;49.900;10.774;2023-04-25T09:54:32;9.50;99.90
39503;DHT22;26970;49.900;10.774;2023-04-25T09:57:19;9.30;99.90
39503;DHT22;26970;49.900;10.774;2023-04-25T09:59:45;9.30;99.90
39503;DHT22;26970;49.900;10.774;2023-04-25T10:02:12;9.50;99.90
39503;DHT22;26970;49.900;10.774;2023-04-25T10:04:38;9.70;99.90
39503;DHT22;26970;49.900;10.774;2023-04-25T10:07:08;9.70;99.90
39503;DHT22;26970;49.900;10.774;2023-04-25T10:09:37;9.50;99.90
39503;DHT22;26970;49.900;10.774;2023-04-25T10:12:03;9.60;99.90
39503;DHT22;26970;49.900;10.774;2023-04-25T10:14:32;9.60;99.90
39503;DHT22;26970;49.900;10.774;2023-04-25T10:16:59;9.80;99.90
39503;DHT22;26970;49.900;10.774;2023-04-25T10:19:25;10.00;99.90
39503;DHT22;26970;49.900;10.774;2023-04-25T10:22:04;10.40;99.90
39503;DHT22;26970;49.900;10.774;2023-04-25T10:24:31;10.50;99.90
39503;DHT22;26970;49.900;10.774;2023-04-25T10:26:57;10.70;99.90
39503;DHT22;26970;49.900;10.774;2023-04-25T10:29:27;11.00;99.90
39503;DHT22;26970;49.900;10.774;2023-04-25T10:31:52;11.10;99.90
39503;DHT22;26970;49.900;10.774;2023-04-25T10:34:18;11.00;99.90
39503;DHT22;26970;49.900;10.774;2023-04-25T10:36:50;11.00;99.90
39503;DHT22;26970;49.900;10.774;2023-04-25T10:39:27;11.00;99.90
39503;DHT22;26970;49.900;10.774;2023-04-25T10:41:55;10.70;99.90
39503;DHT22;26970;49.900;10.774;2023-04-25T10:44:21;10.50;99.90
39503;DHT22;26970;49.900;10.774;2023-04-25T10:46:47;10.70;99.90
39503;DHT22;26970;49.900;10.774;2023-04-25T10:49:34;10.90;99.90
39503;DHT22;26970;49.900;10.774;2023-04-25T10:59:54;10.40;99.90
39503;DHT22;26970;49.900;10.774;2023-04-25T11:02:19;10.10;99.90
39503;DHT22;26970;49.900;10.774;2023-04-25T11:04:45;10.00;99.90
39503;DHT22;26970;49.900;10.774;2023-04-25T11:07:58;9.80;99.90
39503;DHT22;26970;49.900;10.774;2023-04-25T11:10:05;9.80;99.90
39503;DHT22;26970;49.900;10.774;2023-04-25T11:12:31;9.70;99.90
39503;DHT22;26970;49.900;10.774;2023-04-25T11:15:05;9.60;99.90
39503;DHT22;26970;49.900;10.774;2023-04-25T11:17:31;9.70;99.90
39503;DHT22;26970;49.900;10.774;2023-04-25T11:19:57;10.00;99.90
39503;DHT22;26970;49.900;10.774;2023-04-25T11:22:23;10.40;99.90
39503;DHT22;26970;49.900;10.774;2023-04-25T11:24:48;10.40;99.90
39503;DHT22;26970;49.900;10.774;2023-04-25T11:27:14;10.20;99.90
39503;DHT22;26970;49.900;10.774;2023-04-25T11:29:40;10.30;99.90
39503;DHT22;26970;49.900;10.774;2023-04-25T11:32:06;10.20;99.90
39503;DHT22;26970;49.900;10.774;2023-04-25T11:34:33;10.30;99.90
39503;DHT22;26970;49.900;10.774;2023-04-25T11:36:59;10.30;99.90
39503;DHT22;26970;49.900;10.774;2023-04-25T11:39:26;10.10;99.90
39503;DHT22;26970;49.900;10.774;2023-04-25T11:41:53;10.00;99.90
39503;DHT22;26970;49.900;10.774;2023-04-25T11:44:20;10.10;99.90
39503;DHT22;26970;49.900;10.774;2023-04-25T11:46:46;10.40;99.90
39503;DHT22;26970;49.900;10.774;2023-04-25T11:49:12;10.80;99.90
39503;DHT22;26970;49.900;10.774;2023-04-25T11:51:42;11.20;99.90
39503;DHT22;26970;49.900;10.774;2023-04-25T11:54:08;11.00;99.90
39503;DHT22;26970;49.900;10.774;2023-04-25T11:56:34;10.90;99.90
39503;DHT22;26970;49.900;10.774;2023-04-25T11:59:04;10.60;99.90
39503;DHT22;26970;49.900;10.774;2023-04-25T12:01:31;10.40;99.90
39503;DHT22;26970;49.900;10.774;2023-04-25T12:03:57;10.20;99.90
39503;DHT22;26970;49.900;10.774;2023-04-25T12:06:27;9.90;99.90
39503;DHT22;26970;49.900;10.774;2023-04-25T12:09:20;9.60;99.90
39503;DHT22;26970;49.900;10.774;2023-04-25T12:11:54;9.40;99.90
39503;DHT22;26970;49.900;10.774;2023-04-25T12:14:24;9.30;99.90
39503;DHT22;26970;49.900;10.774;2023-04-25T12:16:50;9.30;99.90
39503;DHT22;26970;49.900;10.774;2023-04-25T12:19:17;9.30;99.90
39503;DHT22;26970;49.900;10.774;2023-04-25T12:21:44;9.40;99.90
39503;DHT22;26970;49.900;10.774;2023-04-25T12:24:15;9.50;99.90
39503;DHT22;26970;49.900;10.774;2023-04-25T12:27:03;9.60;99.90
39503;DHT22;26970;49.900;10.774;2023-04-25T12:29:31;9.80;99.90
39503;DHT22;26970;49.900;10.774;2023-04-25T12:31:58;9.90;99.90
39503;DHT22;26970;49.900;10.774;2023-04-25T12:34:25;10.10;99.90
39503;DHT22;26970;49.900;10.774;2023-04-25T12:36:51;10.30;99.90
39503;DHT22;26970;49.900;10.774;2023-04-25T12:39:26;10.50;99.90
39503;DHT22;26970;49.900;10.774;2023-04-25T12:41:52;10.60;99.90
39503;DHT22;26970;49.900;10.774;2023-04-25T12:44:19;10.50;99.90
39503;DHT22;26970;49.900;10.774;2023-04-25T12:46:45;10.60;99.90
39503;DHT22;26970;49.900;10.774;2023-04-25T12:49:11;10.50;99.90
39503;DHT22;26970;49.900;10.774;2023-04-25T12:51:37;10.50;99.90
39503;DHT22;26970;49.900;10.774;2023-04-25T12:54:04;10.40;99.90
39503;DHT22;26970;49.900;10.774;2023-04-25T12:56:30;10.30;99.90
39503;DHT22;26970;49.900;10.774;2023-04-25T12:58:56;10.10;99.90
39503;DHT22;26970;49.900;10.774;2023-04-25T13:01:22;10.00;99.90
39503;DHT22;26970;49.900;10.774;2023-04-25T13:03:48;9.90;99.90
39503;DHT22;26970;49.900;10.774;2023-04-25T13:06:15;9.80;99.90
39503;DHT22;26970;49.900;10.774;2023-04-25T13:08:41;9.90;99.90
39503;DHT22;26970;49.900;10.774;2023-04-25T13:11:07;10.00;99.90
39503;DHT22;26970;49.900;10.774;2023-04-25T13:13:33;10.10;99.90
39503;DHT22;26970;49.900;10.774;2023-04-25T13:16:00;10.20;99.90
39503;DHT22;26970;49.900;10.774;2023-04-25T13:18:27;10.30;99.90
39503;DHT22;26970;49.900;10.774;2023-04-25T13:20:53;10.40;99.90
39503;DHT22;26970;49.900;10.774;2023-04-25T13:23:19;10.50;99.90
39503;DHT22;26970;49.900;10.774;2023-04-25T13:25:46;10.50;99.90
39503;DHT22;26970;49.900;10.774;2023-04-25T13:28:12;10.60;99.90
39503;DHT22;26970;49.900;10.774;2023-04-25T13:30:38;10.60;99.90
39503;DHT22;26970;49.900;10.774;2023-04-25T13:33:03;10.60;99.90
39503;DHT22;26970;49.900;10.774;2023-04-25T13:35:30;10.40;99.90
39503;DHT22;26970;49.900;10.774;2023-04-25T13:37:56;10.10;99.90
39503;DHT22;26970;49.900;10.774;2023-04-25T13:40:22;9.70;99.90
39503;DHT22;26970;49.900;10.774;2023-04-25T13:42:48;9.50;99.90
39503;DHT22;26970;49.900;10.774;2023-04-25T13:45:13;9.40;99.90
39503;DHT22;26970;49.900;10.774;2023-04-25T13:47:39;9.30;99.90
39503;DHT22;26970;49.900;10.774;2023-04-25T13:50:05;9.30;99.90
39503;DHT22;26970;49.900;10.774;2023-04-25T13:52:31;9.30;99.90
39503;DHT22;26970;49.900;10.774;2023-04-25T13:54:57;9.30;99.90
39503;DHT22;26970;49.900;10.774;2023-04-25T13:57:23;9.20;99.90
39503;DHT22;26970;49.900;10.774;2023-04-25T13:59:48;9.10;99.90
39503;DHT22;26970;49.900;10.774;2023-04-25T14:02:14;9.00;99.90
39503;DHT22;26970;49.900;10.774;2023-04-25T14:04:40;9.00;99.90
39503;DHT22;26970;49.900;10.774;2023-04-25T14:07:06;8.80;99.90
39503;DHT22;26970;49.900;10.774;2023-04-25T14:09:31;8.80;99.90
39503;DHT22;26970;49.900;10.774;2023-04-25T14:11:57;8.90;99.90
39503;DHT22;26970;49.900;10.774;2023-04-25T14:14:23;8.90;99.90
39503;DHT22;26970;49.900;10.774;2023-04-25T14:16:49;8.90;99.90
39503;DHT22;26970;49.900;10.774;2023-04-25T14:19:16;8.90;99.90
39503;DHT22;26970;49.900;10.774;2023-04-25T14:21:42;8.80;99.90
39503;DHT22;26970;49.900;10.774;2023-04-25T14:24:08;8.70;99.90
39503;DHT22;26970;49.900;10.774;2023-04-25T14:26:34;8.60;99.90
39503;DHT22;26970;49.900;10.774;2023-04-25T14:29:04;8.60;99.90
39503;DHT22;26970;49.900;10.774;2023-04-25T14:31:31;8.50;99.90
39503;DHT22;26970;49.900;10.774;2023-04-25T14:33:56;8.50;99.90
39503;DHT22;26970;49.900;10.774;2023-04-25T14:36:22;8.60;99.90
39503;DHT22;26970;49.900;10.774;2023-04-25T14:38:47;8.50;99.90
39503;DHT22;26970;49.900;10.774;2023-04-25T14:41:13;8.40;99.90
39503;DHT22;26970;49.900;10.774;2023-04-25T14:43:38;8.40;99.90
39503;DHT22;26970;49.900;10.774;2023-04-25T14:46:06;8.40;99.90
39503;DHT22;26970;49.900;10.774;2023-04-25T14:48:32;8.40;99.90
39503;DHT22;26970;49.900;10.774;2023-04-25T14:50:57;8.40;99.90
39503;DHT22;26970;49.900;10.774;2023-04-25T14:53:25;8.40;99.90
39503;DHT22;26970;49.900;10.774;2023-04-25T14:55:50;8.40;99.90
39503;DHT22;26970;49.900;10.774;2023-04-25T14:58:16;8.40;99.90
39503;DHT22;26970;49.900;10.774;2023-04-25T15:00:42;8.40;99.90
39503;DHT22;26970;49.900;10.774;2023-04-25T15:03:09;8.60;99.90
39503;DHT22;26970;49.900;10.774;2023-04-25T15:05:37;8.90;99.90
39503;DHT22;26970;49.900;10.774;2023-04-25T15:08:02;9.00;99.90
39503;DHT22;26970;49.900;10.774;2023-04-25T15:10:28;9.30;99.90
39503;DHT22;26970;49.900;10.774;2023-04-25T15:12:54;9.40;99.90
39503;DHT22;26970;49.900;10.774;2023-04-25T15:15:20;9.50;99.90
39503;DHT22;26970;49.900;10.774;2023-04-25T15:17:45;9.30;99.90
39503;DHT22;26970;49.900;10.774;2023-04-25T15:20:12;9.30;99.90
39503;DHT22;26970;49.900;10.774;2023-04-25T15:22:43;9.30;99.90
39503;DHT22;26970;49.900;10.774;2023-04-25T15:25:09;9.30;99.90
39503;DHT22;26970;49.900;10.774;2023-04-25T15:27:39;9.30;99.90
39503;DHT22;26970;49.900;10.774;2023-04-25T15:30:13;9.40;99.90
39503;DHT22;26970;49.900;10.774;2023-04-25T15:32:44;9.40;99.90
39503;DHT22;26970;49.900;10.774;2023-04-25T15:35:10;9.40;99.90
39503;DHT22;26970;49.900;10.774;2023-04-25T15:37:36;9.40;99.90